createdAt,value
2022-08-07T00:00:41.872Z,3.70
2022-08-07T00:03:47.248Z,4.20
2022-08-07T00:06:51.628Z,4.32
2022-08-07T00:10:18.753Z,4.68
2022-08-07T00:13:25.551Z,4.12
2022-08-07T00:16:29.776Z,4.10
2022-08-07T00:19:57.452Z,4.10
2022-08-07T00:22:55.931Z,4.20
2022-08-07T00:26:04.133Z,4.05
2022-08-07T00:29:19.353Z,4.40
2022-08-07T00:32:28.231Z,3.93
2022-08-07T00:35:31.649Z,3.92
2022-08-07T00:38:39.149Z,4.03
2022-08-07T00:41:53.213Z,4.18
2022-08-07T00:44:56.818Z,4.22
2022-08-07T00:48:09.460Z,3.90
2022-08-07T00:51:14.366Z,4.00
2022-08-07T00:54:19.642Z,4.12
2022-08-07T00:57:25.154Z,4.00
2022-08-07T01:00:29.233Z,3.78
2022-08-07T01:03:56.252Z,4.30
2022-08-07T01:06:58.361Z,4.30
2022-08-07T01:10:05.668Z,4.00
2022-08-07T01:13:16.324Z,4.12
2022-08-07T01:16:30.619Z,3.75
2022-08-07T01:19:34.791Z,3.87
2022-08-07T01:22:54.179Z,4.10
2022-08-07T01:26:12.248Z,4.15
2022-08-07T01:29:17.066Z,4.05
2022-08-07T01:32:22.280Z,3.92
2022-08-07T01:35:26.909Z,4.23
2022-08-07T01:38:50.451Z,4.40
2022-08-07T01:41:55.223Z,4.50
2022-08-07T01:45:22.702Z,4.28
2022-08-07T01:48:29.740Z,4.43
2022-08-07T01:52:01.313Z,4.83
2022-08-07T01:55:01.123Z,4.72
2022-08-07T01:58:27.326Z,5.00
2022-08-07T02:02:01.879Z,4.60
2022-08-07T02:05:48.451Z,4.47
2022-08-07T02:08:54.397Z,4.43
2022-08-07T02:12:17.851Z,4.50
2022-08-07T02:15:27.896Z,4.60
2022-08-07T02:18:36.042Z,4.53
2022-08-07T02:21:56.280Z,4.82
2022-08-07T02:25:01.559Z,4.80
2022-08-07T02:28:11.789Z,4.47
2022-08-07T02:31:28.589Z,5.18
2022-08-07T02:34:34.327Z,5.25
2022-08-07T02:37:43.809Z,5.50
2022-08-07T02:40:50.484Z,4.93
2022-08-07T02:43:59.516Z,4.65
2022-08-07T02:47:05.531Z,5.40
2022-08-07T02:50:10.552Z,5.37
2022-08-07T02:53:27.288Z,5.57
2022-08-07T02:56:33.502Z,4.90
2022-08-07T02:59:36.817Z,4.85
2022-08-07T03:02:54.242Z,5.10
2022-08-07T03:06:01.265Z,4.80
2022-08-07T03:09:07.692Z,4.57
2022-08-07T03:12:22.219Z,5.33
2022-08-07T03:15:55.813Z,5.03
2022-08-07T03:18:59.984Z,5.22
2022-08-07T03:22:05.234Z,5.30
2022-08-07T03:25:10.435Z,4.97
2022-08-07T03:28:38.089Z,5.07
2022-08-07T03:31:46.463Z,5.62
2022-08-07T03:35:01.001Z,5.32
2022-08-07T03:38:29.720Z,5.20
2022-08-07T03:41:42.525Z,5.28
2022-08-07T03:44:53.559Z,5.97
2022-08-07T03:48:01.337Z,5.30
2022-08-07T03:51:05.598Z,5.22
2022-08-07T03:54:35.591Z,5.47
2022-08-07T03:58:33.260Z,5.55
2022-08-07T04:01:04.625Z,5.53
2022-08-07T04:04:17.103Z,5.47
2022-08-07T04:07:22.911Z,5.18
2022-08-07T04:10:26.478Z,5.28
2022-08-07T04:14:10.726Z,5.68
2022-08-07T04:16:58.886Z,5.30
2022-08-07T04:20:02.054Z,5.30
2022-08-07T04:23:07.137Z,5.40
2022-08-07T04:26:21.993Z,5.30
2022-08-07T04:29:25.466Z,5.30
2022-08-07T04:32:44.836Z,5.10
2022-08-07T04:35:53.828Z,5.12
2022-08-07T04:38:57.328Z,4.97
2022-08-07T04:42:04.159Z,5.10
2022-08-07T04:45:08.832Z,5.00
2022-08-07T04:48:28.269Z,5.37
2022-08-07T04:51:37.521Z,5.20
2022-08-07T04:55:15.039Z,5.70
2022-08-07T05:02:30.106Z,5.28
2022-08-07T05:05:58.694Z,5.23
2022-08-07T05:09:45.762Z,5.05
2022-08-07T05:13:01.841Z,5.07
2022-08-07T05:16:24.459Z,4.93
2022-08-07T05:19:45.224Z,5.00
2022-08-07T05:22:51.707Z,5.23
2022-08-07T05:26:13.120Z,5.40
2022-08-07T05:29:23.907Z,4.93
2022-08-07T05:32:28.720Z,4.90
2022-08-07T05:35:41.561Z,5.12
2022-08-07T05:39:01.293Z,4.47
2022-08-07T05:42:12.309Z,5.00
2022-08-07T05:45:46.476Z,5.00
2022-08-07T05:48:58.465Z,4.62
2022-08-07T05:52:04.813Z,5.07
2022-08-07T05:55:10.873Z,4.33
2022-08-07T05:58:17.132Z,4.93
2022-08-07T06:01:41.781Z,5.15
2022-08-07T06:04:53.712Z,4.70
2022-08-07T06:08:14.916Z,4.45
2022-08-07T06:11:23.797Z,3.70
2022-08-07T06:14:28.710Z,4.45
2022-08-07T06:17:38.089Z,4.62
2022-08-07T06:20:50.404Z,4.07
2022-08-07T06:24:50.729Z,4.20
2022-08-07T06:28:00.335Z,4.10
2022-08-07T06:30:54.313Z,4.40
2022-08-07T06:33:57.849Z,4.55
2022-08-07T06:37:02.571Z,4.07
2022-08-07T06:40:17.140Z,4.30
2022-08-07T06:43:26.841Z,4.20
2022-08-07T06:46:42.860Z,4.10
2022-08-07T06:49:58.208Z,4.40
2022-08-07T06:53:04.091Z,3.70
2022-08-07T06:56:14.835Z,4.50
2022-08-07T07:00:12.531Z,4.17
2022-08-07T07:02:48.943Z,4.50
2022-08-07T07:06:03.450Z,4.18
2022-08-07T07:09:36.634Z,4.00
2022-08-07T07:12:48.935Z,4.30
2022-08-07T07:16:01.268Z,3.87
2022-08-07T07:19:54.581Z,4.18
2022-08-07T07:22:34.016Z,4.10
2022-08-07T07:26:35.008Z,3.97
2022-08-07T07:29:56.128Z,4.25
2022-08-07T07:32:40.580Z,3.40
2022-08-07T07:36:05.048Z,3.65
2022-08-07T07:39:12.051Z,3.80
2022-08-07T07:42:19.838Z,3.78
2022-08-07T07:46:39.874Z,3.40
2022-08-07T07:48:59.975Z,3.30
2022-08-07T07:52:13.868Z,3.62
2022-08-07T07:55:20.891Z,3.92
2022-08-07T07:58:40.792Z,3.87
2022-08-07T08:02:02.945Z,3.60
2022-08-07T08:05:14.252Z,3.70
2022-08-07T08:08:34.720Z,3.80
2022-08-07T08:11:59.492Z,3.70
2022-08-07T08:15:06.996Z,3.50
2022-08-07T08:18:17.429Z,3.70
2022-08-07T08:21:55.842Z,3.10
2022-08-07T08:25:26.884Z,3.15
2022-08-07T08:28:48.125Z,3.30
2022-08-07T08:32:04.720Z,3.03
2022-08-07T08:35:28.475Z,3.55
2022-08-07T08:38:40.540Z,2.90
2022-08-07T08:42:09.289Z,2.87
2022-08-07T08:45:19.860Z,3.05
2022-08-07T08:48:32.352Z,2.87
2022-08-07T08:52:14.459Z,3.03
2022-08-07T08:55:53.198Z,2.50
2022-08-07T08:58:50.610Z,3.10
2022-08-07T09:02:11.304Z,3.10
2022-08-07T09:05:43.621Z,2.80
2022-08-07T09:08:46.892Z,3.28
2022-08-07T09:12:30.681Z,3.10
2022-08-07T09:16:25.843Z,3.05
2022-08-07T09:19:53.525Z,2.92
2022-08-07T09:24:30.370Z,3.17
2022-08-07T09:26:31.305Z,2.42
2022-08-07T09:30:08.482Z,3.30
2022-08-07T09:33:41.076Z,3.00
2022-08-07T09:37:00.050Z,3.30
2022-08-07T09:40:40.550Z,2.70
2022-08-07T09:44:06.563Z,3.30
2022-08-07T09:47:58.227Z,2.80
2022-08-07T09:52:10.856Z,2.83
2022-08-07T09:54:53.598Z,3.33
2022-08-07T09:58:05.605Z,2.60
2022-08-07T10:01:52.148Z,2.92
2022-08-07T10:05:59.587Z,3.03
2022-08-07T10:09:07.441Z,2.80
2022-08-07T10:12:26.381Z,3.35
2022-08-07T10:16:10.812Z,2.75
2022-08-07T10:19:37.759Z,3.00
2022-08-07T10:23:07.650Z,3.00
2022-08-07T10:26:24.704Z,2.78
2022-08-07T10:30:00.779Z,3.35
2022-08-07T10:33:14.992Z,2.85
2022-08-07T10:36:29.973Z,2.90
2022-08-07T10:40:10.804Z,2.93
2022-08-07T10:43:34.776Z,3.53
2022-08-07T10:46:50.230Z,3.30
2022-08-07T10:49:53.348Z,3.62
2022-08-07T10:53:12.693Z,3.00
2022-08-07T10:56:58.061Z,2.63
2022-08-07T11:00:36.172Z,3.17
2022-08-07T11:03:55.204Z,3.25
2022-08-07T11:07:59.565Z,3.00
2022-08-07T11:10:59.804Z,3.80
2022-08-07T11:14:57.531Z,2.70
2022-08-07T11:18:15.058Z,3.15
2022-08-07T11:21:46.971Z,3.40
2022-08-07T11:24:52.539Z,2.80
2022-08-07T11:28:08.013Z,2.80
2022-08-07T11:31:37.406Z,3.30
2022-08-07T11:34:48.059Z,2.83
2022-08-07T11:38:10.158Z,3.25
2022-08-07T11:41:29.688Z,3.22
2022-08-07T11:45:20.521Z,3.12
2022-08-07T11:49:27.446Z,2.77
2022-08-07T11:52:52.275Z,3.17
2022-08-07T11:56:27.344Z,2.70
2022-08-07T12:00:12.652Z,2.83
2022-08-07T12:03:53.442Z,2.72
2022-08-07T12:07:20.190Z,2.70
2022-08-07T12:10:45.300Z,2.95
2022-08-07T12:14:08.566Z,2.60
2022-08-07T12:17:19.699Z,2.67
2022-08-07T12:20:45.129Z,2.83
2022-08-07T12:24:05.343Z,2.60
2022-08-07T12:27:16.807Z,2.70
2022-08-07T12:30:24.363Z,2.43
2022-08-07T12:33:56.622Z,2.45
2022-08-07T12:36:58.799Z,2.67
2022-08-07T12:40:03.183Z,2.70
2022-08-07T12:43:09.760Z,2.53
2022-08-07T12:46:26.339Z,2.97
2022-08-07T12:50:04.467Z,2.70
2022-08-07T12:53:18.841Z,2.92
2022-08-07T12:56:50.875Z,2.62
2022-08-07T12:59:56.021Z,2.90
2022-08-07T13:03:53.507Z,3.00
2022-08-07T13:08:12.913Z,2.65
2022-08-07T13:11:01.022Z,2.65
2022-08-07T13:14:29.228Z,3.08
2022-08-07T13:17:52.653Z,3.00
2022-08-07T13:21:14.838Z,2.40
2022-08-07T13:24:53.902Z,3.03
2022-08-07T13:28:18.289Z,2.90
2022-08-07T13:31:32.057Z,3.15
2022-08-07T13:35:21.442Z,3.20
2022-08-07T13:38:30.550Z,3.23
2022-08-07T13:41:48.607Z,3.20
2022-08-07T13:45:20.507Z,3.00
2022-08-07T13:48:27.565Z,3.00
2022-08-07T13:52:05.133Z,2.80
2022-08-07T13:55:11.054Z,2.97
2022-08-07T13:58:35.565Z,3.50
2022-08-07T14:01:59.230Z,3.28
2022-08-07T14:05:15.515Z,2.95
2022-08-07T14:08:21.585Z,2.95
2022-08-07T14:11:28.475Z,2.97
2022-08-07T14:15:00.746Z,2.80
2022-08-07T14:18:28.702Z,3.47
2022-08-07T14:22:01.682Z,3.05
2022-08-07T14:25:15.047Z,3.22
2022-08-07T14:28:20.359Z,3.20
2022-08-07T14:31:43.082Z,2.67
2022-08-07T14:35:01.651Z,3.30
2022-08-07T14:38:09.265Z,3.08
2022-08-07T14:42:20.663Z,3.10
2022-08-07T14:45:21.795Z,3.70
2022-08-07T14:48:33.266Z,3.00
2022-08-07T14:52:04.611Z,3.65
2022-08-07T14:55:03.850Z,3.70
2022-08-07T14:58:07.932Z,4.05
2022-08-07T15:01:42.685Z,4.27
2022-08-07T15:04:55.159Z,4.47
2022-08-07T15:07:59.125Z,4.50
2022-08-07T15:11:15.054Z,4.45
2022-08-07T15:17:58.995Z,4.57
2022-08-07T15:25:13.407Z,3.72
2022-08-07T15:28:36.295Z,4.10
2022-08-07T15:34:58.322Z,4.10
2022-08-07T15:38:17.261Z,3.80
2022-08-07T15:44:52.975Z,4.03
2022-08-07T15:48:05.090Z,3.30
2022-08-07T15:51:12.001Z,3.13
2022-08-07T15:54:16.522Z,3.12
2022-08-07T15:57:28.131Z,2.97
2022-08-07T16:00:51.795Z,2.87
2022-08-07T16:04:02.309Z,3.20
2022-08-07T16:08:29.226Z,3.07
2022-08-07T16:10:33.699Z,3.60
2022-08-07T16:14:02.919Z,3.20
2022-08-07T16:18:00.813Z,3.05
2022-08-07T16:22:03.174Z,2.90
2022-08-07T16:24:52.542Z,3.00
2022-08-07T16:29:18.587Z,3.17
2022-08-07T16:32:03.818Z,3.50
2022-08-07T16:35:56.533Z,2.92
2022-08-07T16:39:40.470Z,3.17
2022-08-07T16:43:24.162Z,2.37
2022-08-07T16:47:12.427Z,2.80
2022-08-07T16:50:38.995Z,2.78
2022-08-07T16:54:19.023Z,2.67
2022-08-07T16:58:01.771Z,3.22
2022-08-07T17:01:34.293Z,2.97
2022-08-07T17:05:05.133Z,3.05
2022-08-07T17:08:09.044Z,3.05
2022-08-07T17:11:27.997Z,2.97
2022-08-07T17:14:57.263Z,2.97
2022-08-07T17:18:27.023Z,3.07
2022-08-07T17:21:51.219Z,2.67
2022-08-07T17:25:04.459Z,3.12
2022-08-07T17:28:20.211Z,2.85
2022-08-07T17:31:44.205Z,3.20
2022-08-07T17:35:51.557Z,3.00
2022-08-07T17:38:58.704Z,2.65
2022-08-07T17:42:11.873Z,3.00
2022-08-07T17:45:23.555Z,3.08
2022-08-07T17:48:45.178Z,3.10
2022-08-07T17:52:00.548Z,2.80
2022-08-07T17:55:12.535Z,2.95
2022-08-07T17:58:30.605Z,3.03
2022-08-07T18:01:43.554Z,2.78
2022-08-07T18:04:55.999Z,3.10
2022-08-07T18:08:23.905Z,2.80
2022-08-07T18:12:17.523Z,3.12
2022-08-07T18:15:32.933Z,3.40
2022-08-07T18:21:05.867Z,2.90
2022-08-07T18:22:31.313Z,3.08
2022-08-07T18:25:42.987Z,2.77
2022-08-07T18:30:05.470Z,2.92
2022-08-07T18:32:53.276Z,3.10
2022-08-07T18:36:33.001Z,2.97
2022-08-07T18:40:06.629Z,3.12
2022-08-07T18:43:16.289Z,2.70
2022-08-07T18:46:51.584Z,2.80
2022-08-07T18:50:40.701Z,3.37
2022-08-07T18:53:57.631Z,3.00
2022-08-07T18:57:31.333Z,2.80
2022-08-07T19:00:50.026Z,3.20
2022-08-07T19:04:09.554Z,3.25
2022-08-07T19:07:34.495Z,3.17
2022-08-07T19:10:51.894Z,3.10
2022-08-07T19:14:26.174Z,3.67
2022-08-07T19:18:07.148Z,3.47
2022-08-07T19:21:44.123Z,3.22
2022-08-07T19:24:50.616Z,3.60
2022-08-07T19:28:30.059Z,3.00
2022-08-07T19:32:07.837Z,3.08
2022-08-07T19:35:19.637Z,3.17
2022-08-07T19:38:29.801Z,3.20
2022-08-07T19:42:05.511Z,3.25
2022-08-07T19:45:10.015Z,3.60
2022-08-07T19:48:19.118Z,3.20
2022-08-07T19:51:53.162Z,3.40
2022-08-07T19:54:57.210Z,3.20
2022-08-07T19:58:12.566Z,3.58
2022-08-07T20:01:18.469Z,3.47
2022-08-07T20:04:31.556Z,3.95
2022-08-07T20:07:47.498Z,2.97
2022-08-07T20:11:03.756Z,3.28
2022-08-07T20:14:20.956Z,3.28
2022-08-07T20:17:38.793Z,3.35
2022-08-07T20:20:43.361Z,3.50
2022-08-07T20:23:54.078Z,3.30
2022-08-07T20:27:02.841Z,3.60
2022-08-07T20:30:11.534Z,3.42
2022-08-07T20:33:36.163Z,3.20
2022-08-07T20:36:44.175Z,3.35
2022-08-07T20:40:03.240Z,3.27
2022-08-07T20:43:19.716Z,3.40
2022-08-07T20:46:42.896Z,3.20
2022-08-07T20:50:00.919Z,3.22
2022-08-07T20:53:06.211Z,3.67
2022-08-07T20:56:12.610Z,3.27
2022-08-07T21:00:05.226Z,3.50
2022-08-07T21:03:03.314Z,3.40
2022-08-07T21:06:21.426Z,3.08
2022-08-07T21:09:53.003Z,2.97
2022-08-07T21:13:03.544Z,3.03
2022-08-07T21:16:09.355Z,3.20
2022-08-07T21:19:14.498Z,3.22
2022-08-07T21:22:19.981Z,3.17
2022-08-07T21:25:56.760Z,2.95
2022-08-07T21:29:12.838Z,3.07
2022-08-07T21:32:43.866Z,3.15
2022-08-07T21:36:05.047Z,3.03
2022-08-07T21:39:45.973Z,2.97
2022-08-07T21:42:52.830Z,3.08
2022-08-07T21:46:24.513Z,2.90
2022-08-07T21:50:02.276Z,2.70
2022-08-07T21:53:17.320Z,3.00
2022-08-07T21:56:48.041Z,2.75
2022-08-07T22:00:22.387Z,3.10
2022-08-07T22:03:42.124Z,2.90
2022-08-07T22:07:14.824Z,3.07
2022-08-07T22:10:24.708Z,3.07
2022-08-07T22:13:51.899Z,2.62
2022-08-07T22:17:01.142Z,3.30
2022-08-07T22:20:23.550Z,3.12
2022-08-07T22:23:32.680Z,3.30
2022-08-07T22:26:53.467Z,3.23
2022-08-07T22:30:18.467Z,3.28
2022-08-07T22:33:53.210Z,3.30
2022-08-07T22:37:09.462Z,3.53
2022-08-07T22:40:25.182Z,3.60
2022-08-07T22:43:39.454Z,3.10
2022-08-07T22:47:08.832Z,3.08
2022-08-07T22:50:33.010Z,3.30
2022-08-07T22:54:07.559Z,3.10
2022-08-07T22:57:45.185Z,3.23
2022-08-07T23:00:53.877Z,3.00
2022-08-07T23:04:35.437Z,3.47
2022-08-07T23:08:07.344Z,3.70
2022-08-07T23:11:59.320Z,3.37
2022-08-07T23:15:05.353Z,3.07
2022-08-07T23:18:20.441Z,3.23
2022-08-07T23:21:39.865Z,3.05
2022-08-07T23:25:04.640Z,3.70
2022-08-07T23:28:36.739Z,3.40
2022-08-07T23:34:20.188Z,3.60
2022-08-07T23:35:53.841Z,2.97
2022-08-07T23:39:22.181Z,3.10
2022-08-07T23:42:53.320Z,3.40
2022-08-07T23:46:12.536Z,3.00
2022-08-07T23:49:57.717Z,3.00
2022-08-07T23:53:08.701Z,3.20
2022-08-07T23:56:54.115Z,3.50
